<?xml version="1.0" encoding="UTF-8" standalone="no" ?>
<gpx xmlns="http://www.topografix.com/GPX/1/1" xmlns:xsi="http://www.w3.org/2001/XMLSchema-instance" xsi:schemaLocation="http://www.topografix.com/GPX/1/1 http://www.topografix.com/GPX/1/1/gpx.xsd" version="1.1" creator="VisuGPX - https://www.visugpx.com">
  <metadata>
    <name>05: Plateau de Bouissac - Mas de Fonts</name>
    <desc><![CDATA[05: Plateau de Bouissac - Mas de Fonts]]></desc>
  </metadata>
  <wpt lat="43.83657" lon="3.11798">
    <ele>530.1</ele>
    <name><![CDATA[PCD]]></name>
  </wpt>
  <wpt lat="43.83618" lon="3.11496">
    <ele>569.9</ele>
    <name><![CDATA[BRA]]></name>
  </wpt>
  <wpt lat="43.83616" lon="3.1138">
    <ele>589.9</ele>
    <name><![CDATA[BRB]]></name>
  </wpt>
  <wpt lat="43.83393" lon="3.10913">
    <ele>690</ele>
    <name><![CDATA[BRG]]></name>
  </wpt>
  <wpt lat="43.83395" lon="3.10485">
    <ele>700</ele>
    <name><![CDATA[SBC]]></name>
  </wpt>
  <wpt lat="43.83494" lon="3.10351">
    <ele>715.1</ele>
    <name><![CDATA[BSC]]></name>
  </wpt>
  <wpt lat="43.83852" lon="3.10886">
    <ele>545</ele>
    <name><![CDATA[SBA]]></name>
  </wpt>
  <wpt lat="43.84037" lon="3.10487">
    <ele>550</ele>
    <name><![CDATA[MDF]]></name>
  </wpt>
  <wpt lat="43.83895" lon="3.10332">
    <ele>625</ele>
    <name><![CDATA[CSL]]></name>
  </wpt>
  <wpt lat="43.83778" lon="3.10063">
    <ele>589.9</ele>
    <name><![CDATA[CIA]]></name>
  </wpt>
  <wpt lat="43.83612" lon="3.10162">
    <ele>640.1</ele>
    <name><![CDATA[CSK]]></name>
  </wpt>
  <wpt lat="43.83407" lon="3.10217">
    <ele>710.1</ele>
    <name><![CDATA[BSB]]></name>
  </wpt>
  <wpt lat="43.83477" lon="3.10131">
    <ele>705</ele>
    <name><![CDATA[BSA]]></name>
  </wpt>
  <wpt lat="43.83207" lon="3.09912">
    <ele>680</ele>
    <name><![CDATA[CSJ]]></name>
  </wpt>
  <wpt lat="43.83631" lon="3.12279">
    <ele>520</ele>
    <name><![CDATA[Accueil PdC Centre]]></name>
  </wpt>
  <trk>
    <name><![CDATA[RoTr 05 PdC]]></name>
    <trkseg>
      <trkpt lat="43.83656" lon="3.11797">
        <ele>535</ele>
        <time>2010-01-01T00:00:00Z</time>
      </trkpt>
      <trkpt lat="43.83654" lon="3.11795">
        <ele>535</ele>
        <time>2010-01-01T00:00:05Z</time>
      </trkpt>
      <trkpt lat="43.83632" lon="3.1169">
        <ele>542</ele>
        <time>2010-01-01T00:02:32Z</time>
      </trkpt>
      <trkpt lat="43.83628" lon="3.11652">
        <ele>544</ele>
        <time>2010-01-01T00:03:25Z</time>
      </trkpt>
      <trkpt lat="43.83628" lon="3.1161">
        <ele>546</ele>
        <time>2010-01-01T00:04:22Z</time>
      </trkpt>
      <trkpt lat="43.83623" lon="3.11583">
        <ele>548</ele>
        <time>2010-01-01T00:04:59Z</time>
      </trkpt>
      <trkpt lat="43.83614" lon="3.11503">
        <ele>555</ele>
        <time>2010-01-01T00:06:49Z</time>
      </trkpt>
      <trkpt lat="43.83614" lon="3.11503">
        <ele>555</ele>
        <time>2010-01-01T00:06:50Z</time>
      </trkpt>
      <trkpt lat="43.83611" lon="3.11449">
        <ele>564</ele>
        <time>2010-01-01T00:08:03Z</time>
      </trkpt>
      <trkpt lat="43.83616" lon="3.11419">
        <ele>567</ele>
        <time>2010-01-01T00:08:45Z</time>
      </trkpt>
      <trkpt lat="43.83618" lon="3.11403">
        <ele>571</ele>
        <time>2010-01-01T00:09:07Z</time>
      </trkpt>
      <trkpt lat="43.83618" lon="3.11389">
        <ele>574</ele>
        <time>2010-01-01T00:09:25Z</time>
      </trkpt>
      <trkpt lat="43.83617" lon="3.11383">
        <ele>576</ele>
        <time>2010-01-01T00:09:34Z</time>
      </trkpt>
      <trkpt lat="43.83615" lon="3.1138">
        <ele>577</ele>
        <time>2010-01-01T00:09:40Z</time>
      </trkpt>
      <trkpt lat="43.8361" lon="3.11388">
        <ele>577</ele>
        <time>2010-01-01T00:09:55Z</time>
      </trkpt>
      <trkpt lat="43.83602" lon="3.11387">
        <ele>579</ele>
        <time>2010-01-01T00:10:10Z</time>
      </trkpt>
      <trkpt lat="43.83576" lon="3.11335">
        <ele>599</ele>
        <time>2010-01-01T00:11:36Z</time>
      </trkpt>
      <trkpt lat="43.83556" lon="3.11293">
        <ele>610</ele>
        <time>2010-01-01T00:12:44Z</time>
      </trkpt>
      <trkpt lat="43.83537" lon="3.11259">
        <ele>618</ele>
        <time>2010-01-01T00:13:43Z</time>
      </trkpt>
      <trkpt lat="43.83447" lon="3.11066">
        <ele>664</ele>
        <time>2010-01-01T00:18:54Z</time>
      </trkpt>
      <trkpt lat="43.83424" lon="3.1102">
        <ele>671</ele>
        <time>2010-01-01T00:20:10Z</time>
      </trkpt>
      <trkpt lat="43.83407" lon="3.10975">
        <ele>678</ele>
        <time>2010-01-01T00:21:19Z</time>
      </trkpt>
      <trkpt lat="43.83385" lon="3.10926">
        <ele>683</ele>
        <time>2010-01-01T00:22:38Z</time>
      </trkpt>
      <trkpt lat="43.83386" lon="3.10917">
        <ele>685</ele>
        <time>2010-01-01T00:22:50Z</time>
      </trkpt>
      <trkpt lat="43.8339" lon="3.10918">
        <ele>686</ele>
        <time>2010-01-01T00:22:59Z</time>
      </trkpt>
      <trkpt lat="43.83394" lon="3.10912">
        <ele>688</ele>
        <time>2010-01-01T00:23:08Z</time>
      </trkpt>
      <trkpt lat="43.83394" lon="3.10908">
        <ele>688</ele>
        <time>2010-01-01T00:23:14Z</time>
      </trkpt>
      <trkpt lat="43.83398" lon="3.10854">
        <ele>696</ele>
        <time>2010-01-01T00:24:28Z</time>
      </trkpt>
      <trkpt lat="43.83411" lon="3.10771">
        <ele>701</ele>
        <time>2010-01-01T00:26:23Z</time>
      </trkpt>
      <trkpt lat="43.83408" lon="3.10663">
        <ele>700</ele>
        <time>2010-01-01T00:28:50Z</time>
      </trkpt>
      <trkpt lat="43.83417" lon="3.10617">
        <ele>697</ele>
        <time>2010-01-01T00:29:54Z</time>
      </trkpt>
      <trkpt lat="43.83403" lon="3.1056">
        <ele>701</ele>
        <time>2010-01-01T00:31:16Z</time>
      </trkpt>
      <trkpt lat="43.83389" lon="3.10512">
        <ele>707</ele>
        <time>2010-01-01T00:32:26Z</time>
      </trkpt>
      <trkpt lat="43.83397" lon="3.10483">
        <ele>707</ele>
        <time>2010-01-01T00:33:08Z</time>
      </trkpt>
      <trkpt lat="43.83397" lon="3.1048">
        <ele>708</ele>
        <time>2010-01-01T00:33:12Z</time>
      </trkpt>
      <trkpt lat="43.83401" lon="3.10473">
        <ele>708</ele>
        <time>2010-01-01T00:33:25Z</time>
      </trkpt>
      <trkpt lat="43.83415" lon="3.1048">
        <ele>705</ele>
        <time>2010-01-01T00:33:51Z</time>
      </trkpt>
      <trkpt lat="43.83418" lon="3.10472">
        <ele>705</ele>
        <time>2010-01-01T00:34:03Z</time>
      </trkpt>
      <trkpt lat="43.83413" lon="3.10457">
        <ele>707</ele>
        <time>2010-01-01T00:34:26Z</time>
      </trkpt>
      <trkpt lat="43.83431" lon="3.10432">
        <ele>709</ele>
        <time>2010-01-01T00:35:13Z</time>
      </trkpt>
      <trkpt lat="43.83436" lon="3.10419">
        <ele>710</ele>
        <time>2010-01-01T00:35:33Z</time>
      </trkpt>
      <trkpt lat="43.83444" lon="3.10414">
        <ele>710</ele>
        <time>2010-01-01T00:35:51Z</time>
      </trkpt>
      <trkpt lat="43.83476" lon="3.10415">
        <ele>709</ele>
        <time>2010-01-01T00:36:50Z</time>
      </trkpt>
      <trkpt lat="43.83488" lon="3.10355">
        <ele>711</ele>
        <time>2010-01-01T00:38:14Z</time>
      </trkpt>
      <trkpt lat="43.83489" lon="3.10353">
        <ele>711</ele>
        <time>2010-01-01T00:38:18Z</time>
      </trkpt>
      <trkpt lat="43.83491" lon="3.10336">
        <ele>711</ele>
        <time>2010-01-01T00:38:41Z</time>
      </trkpt>
      <trkpt lat="43.83477" lon="3.10295">
        <ele>708</ele>
        <time>2010-01-01T00:39:43Z</time>
      </trkpt>
      <trkpt lat="43.83464" lon="3.10268">
        <ele>707</ele>
        <time>2010-01-01T00:40:27Z</time>
      </trkpt>
      <trkpt lat="43.83437" lon="3.10234">
        <ele>709</ele>
        <time>2010-01-01T00:41:35Z</time>
      </trkpt>
      <trkpt lat="43.83411" lon="3.10226">
        <ele>713</ele>
        <time>2010-01-01T00:42:25Z</time>
      </trkpt>
      <trkpt lat="43.83408" lon="3.10217">
        <ele>713</ele>
        <time>2010-01-01T00:42:39Z</time>
      </trkpt>
      <trkpt lat="43.83408" lon="3.10213">
        <ele>713</ele>
        <time>2010-01-01T00:42:44Z</time>
      </trkpt>
      <trkpt lat="43.8341" lon="3.10205">
        <ele>712</ele>
        <time>2010-01-01T00:42:55Z</time>
      </trkpt>
      <trkpt lat="43.83442" lon="3.10167">
        <ele>705</ele>
        <time>2010-01-01T00:44:13Z</time>
      </trkpt>
      <trkpt lat="43.8346" lon="3.10158">
        <ele>700</ele>
        <time>2010-01-01T00:44:49Z</time>
      </trkpt>
      <trkpt lat="43.83473" lon="3.10134">
        <ele>694</ele>
        <time>2010-01-01T00:45:31Z</time>
      </trkpt>
      <trkpt lat="43.83473" lon="3.10132">
        <ele>694</ele>
        <time>2010-01-01T00:45:34Z</time>
      </trkpt>
      <trkpt lat="43.83472" lon="3.10116">
        <ele>692</ele>
        <time>2010-01-01T00:45:56Z</time>
      </trkpt>
      <trkpt lat="43.83462" lon="3.10105">
        <ele>693</ele>
        <time>2010-01-01T00:46:20Z</time>
      </trkpt>
      <trkpt lat="43.8345" lon="3.10095">
        <ele>694</ele>
        <time>2010-01-01T00:46:47Z</time>
      </trkpt>
      <trkpt lat="43.83382" lon="3.10059">
        <ele>697</ele>
        <time>2010-01-01T00:49:03Z</time>
      </trkpt>
      <trkpt lat="43.83348" lon="3.10038">
        <ele>695</ele>
        <time>2010-01-01T00:50:12Z</time>
      </trkpt>
      <trkpt lat="43.83285" lon="3.09996">
        <ele>692</ele>
        <time>2010-01-01T00:52:25Z</time>
      </trkpt>
      <trkpt lat="43.83244" lon="3.09964">
        <ele>694</ele>
        <time>2010-01-01T00:53:53Z</time>
      </trkpt>
      <trkpt lat="43.83213" lon="3.09923">
        <ele>695</ele>
        <time>2010-01-01T00:55:14Z</time>
      </trkpt>
      <trkpt lat="43.8321" lon="3.09915">
        <ele>694</ele>
        <time>2010-01-01T00:55:25Z</time>
      </trkpt>
      <trkpt lat="43.8321" lon="3.09915">
        <ele>694</ele>
        <time>2010-01-01T00:55:26Z</time>
      </trkpt>
      <trkpt lat="43.83213" lon="3.09911">
        <ele>694</ele>
        <time>2010-01-01T00:55:34Z</time>
      </trkpt>
      <trkpt lat="43.83217" lon="3.09912">
        <ele>693</ele>
        <time>2010-01-01T00:55:41Z</time>
      </trkpt>
      <trkpt lat="43.83229" lon="3.09929">
        <ele>692</ele>
        <time>2010-01-01T00:56:13Z</time>
      </trkpt>
      <trkpt lat="43.83248" lon="3.09944">
        <ele>690</ele>
        <time>2010-01-01T00:56:55Z</time>
      </trkpt>
      <trkpt lat="43.83268" lon="3.09952">
        <ele>689</ele>
        <time>2010-01-01T00:57:34Z</time>
      </trkpt>
      <trkpt lat="43.83329" lon="3.0997">
        <ele>684</ele>
        <time>2010-01-01T00:59:31Z</time>
      </trkpt>
      <trkpt lat="43.83423" lon="3.09989">
        <ele>671</ele>
        <time>2010-01-01T01:02:29Z</time>
      </trkpt>
      <trkpt lat="43.83466" lon="3.10002">
        <ele>665</ele>
        <time>2010-01-01T01:03:53Z</time>
      </trkpt>
      <trkpt lat="43.83533" lon="3.10016">
        <ele>655</ele>
        <time>2010-01-01T01:05:59Z</time>
      </trkpt>
      <trkpt lat="43.83559" lon="3.10025">
        <ele>650</ele>
        <time>2010-01-01T01:06:50Z</time>
      </trkpt>
      <trkpt lat="43.83574" lon="3.10038">
        <ele>649</ele>
        <time>2010-01-01T01:07:23Z</time>
      </trkpt>
      <trkpt lat="43.83593" lon="3.10058">
        <ele>647</ele>
        <time>2010-01-01T01:08:08Z</time>
      </trkpt>
      <trkpt lat="43.83612" lon="3.10094">
        <ele>647</ele>
        <time>2010-01-01T01:09:09Z</time>
      </trkpt>
      <trkpt lat="43.83615" lon="3.10146">
        <ele>656</ele>
        <time>2010-01-01T01:10:20Z</time>
      </trkpt>
      <trkpt lat="43.83617" lon="3.10148">
        <ele>656</ele>
        <time>2010-01-01T01:10:24Z</time>
      </trkpt>
      <trkpt lat="43.83628" lon="3.1015">
        <ele>653</ele>
        <time>2010-01-01T01:10:45Z</time>
      </trkpt>
      <trkpt lat="43.83672" lon="3.10138">
        <ele>640</ele>
        <time>2010-01-01T01:12:10Z</time>
      </trkpt>
      <trkpt lat="43.83706" lon="3.10139">
        <ele>634</ele>
        <time>2010-01-01T01:13:14Z</time>
      </trkpt>
      <trkpt lat="43.83791" lon="3.10173">
        <ele>626</ele>
        <time>2010-01-01T01:16:00Z</time>
      </trkpt>
      <trkpt lat="43.83826" lon="3.10193">
        <ele>620</ele>
        <time>2010-01-01T01:17:11Z</time>
      </trkpt>
      <trkpt lat="43.83851" lon="3.10218">
        <ele>617</ele>
        <time>2010-01-01T01:18:09Z</time>
      </trkpt>
      <trkpt lat="43.83875" lon="3.10265">
        <ele>616</ele>
        <time>2010-01-01T01:19:28Z</time>
      </trkpt>
      <trkpt lat="43.83891" lon="3.10324">
        <ele>619</ele>
        <time>2010-01-01T01:20:52Z</time>
      </trkpt>
      <trkpt lat="43.83892" lon="3.10328">
        <ele>619</ele>
        <time>2010-01-01T01:20:59Z</time>
      </trkpt>
      <trkpt lat="43.83894" lon="3.10328">
        <ele>618</ele>
        <time>2010-01-01T01:21:02Z</time>
      </trkpt>
      <trkpt lat="43.83898" lon="3.10323">
        <ele>615</ele>
        <time>2010-01-01T01:21:12Z</time>
      </trkpt>
      <trkpt lat="43.83892" lon="3.10299">
        <ele>614</ele>
        <time>2010-01-01T01:21:46Z</time>
      </trkpt>
      <trkpt lat="43.83887" lon="3.1025">
        <ele>608</ele>
        <time>2010-01-01T01:22:54Z</time>
      </trkpt>
      <trkpt lat="43.83881" lon="3.10215">
        <ele>604</ele>
        <time>2010-01-01T01:23:43Z</time>
      </trkpt>
      <trkpt lat="43.83872" lon="3.10179">
        <ele>600</ele>
        <time>2010-01-01T01:24:34Z</time>
      </trkpt>
      <trkpt lat="43.83854" lon="3.10148">
        <ele>600</ele>
        <time>2010-01-01T01:25:28Z</time>
      </trkpt>
      <trkpt lat="43.83802" lon="3.10097">
        <ele>602</ele>
        <time>2010-01-01T01:27:27Z</time>
      </trkpt>
      <trkpt lat="43.83779" lon="3.10072">
        <ele>604</ele>
        <time>2010-01-01T01:28:22Z</time>
      </trkpt>
      <trkpt lat="43.83778" lon="3.10069">
        <ele>605</ele>
        <time>2010-01-01T01:28:27Z</time>
      </trkpt>
      <trkpt lat="43.83779" lon="3.10067">
        <ele>605</ele>
        <time>2010-01-01T01:28:30Z</time>
      </trkpt>
      <trkpt lat="43.83781" lon="3.10066">
        <ele>605</ele>
        <time>2010-01-01T01:28:33Z</time>
      </trkpt>
      <trkpt lat="43.83787" lon="3.1007">
        <ele>603</ele>
        <time>2010-01-01T01:28:47Z</time>
      </trkpt>
      <trkpt lat="43.83897" lon="3.10125">
        <ele>585</ele>
        <time>2010-01-01T01:32:26Z</time>
      </trkpt>
      <trkpt lat="43.83913" lon="3.10139">
        <ele>582</ele>
        <time>2010-01-01T01:33:02Z</time>
      </trkpt>
      <trkpt lat="43.8393" lon="3.10181">
        <ele>584</ele>
        <time>2010-01-01T01:34:07Z</time>
      </trkpt>
      <trkpt lat="43.83961" lon="3.10291">
        <ele>586</ele>
        <time>2010-01-01T01:36:47Z</time>
      </trkpt>
      <trkpt lat="43.84015" lon="3.10458">
        <ele>565</ele>
        <time>2010-01-01T01:40:55Z</time>
      </trkpt>
      <trkpt lat="43.84026" lon="3.10476">
        <ele>564</ele>
        <time>2010-01-01T01:41:26Z</time>
      </trkpt>
      <trkpt lat="43.84037" lon="3.10487">
        <ele>564</ele>
        <time>2010-01-01T01:41:52Z</time>
      </trkpt>
      <trkpt lat="43.84038" lon="3.10488">
        <ele>564</ele>
        <time>2010-01-01T01:41:54Z</time>
      </trkpt>
      <trkpt lat="43.84048" lon="3.10503">
        <ele>563</ele>
        <time>2010-01-01T01:42:22Z</time>
      </trkpt>
      <trkpt lat="43.8405" lon="3.10518">
        <ele>564</ele>
        <time>2010-01-01T01:42:43Z</time>
      </trkpt>
      <trkpt lat="43.83932" lon="3.10748">
        <ele>558</ele>
        <time>2010-01-01T01:49:06Z</time>
      </trkpt>
      <trkpt lat="43.83889" lon="3.10823">
        <ele>556</ele>
        <time>2010-01-01T01:51:15Z</time>
      </trkpt>
      <trkpt lat="43.83852" lon="3.10881">
        <ele>555</ele>
        <time>2010-01-01T01:52:59Z</time>
      </trkpt>
      <trkpt lat="43.83851" lon="3.10882">
        <ele>555</ele>
        <time>2010-01-01T01:53:03Z</time>
      </trkpt>
      <trkpt lat="43.83821" lon="3.10926">
        <ele>554</ele>
        <time>2010-01-01T01:54:24Z</time>
      </trkpt>
      <trkpt lat="43.83772" lon="3.11081">
        <ele>561</ele>
        <time>2010-01-01T01:58:14Z</time>
      </trkpt>
      <trkpt lat="43.83773" lon="3.11137">
        <ele>558</ele>
        <time>2010-01-01T01:59:30Z</time>
      </trkpt>
      <trkpt lat="43.8373" lon="3.11301">
        <ele>551</ele>
        <time>2010-01-01T02:03:27Z</time>
      </trkpt>
      <trkpt lat="43.83684" lon="3.11474">
        <ele>549</ele>
        <time>2010-01-01T02:07:37Z</time>
      </trkpt>
      <trkpt lat="43.8367" lon="3.11549">
        <ele>544</ele>
        <time>2010-01-01T02:09:22Z</time>
      </trkpt>
      <trkpt lat="43.83653" lon="3.11697">
        <ele>538</ele>
        <time>2010-01-01T02:12:45Z</time>
      </trkpt>
      <trkpt lat="43.83657" lon="3.11736">
        <ele>535</ele>
        <time>2010-01-01T02:13:39Z</time>
      </trkpt>
      <trkpt lat="43.83657" lon="3.11795">
        <ele>535</ele>
        <time>2010-01-01T02:14:59Z</time>
      </trkpt>
    </trkseg>
  </trk>
</gpx>